Time;durP1;ratioP1;P1;durP2;ratioP2;P2;SDS_P1;SDS_P2;PMS_P1;PMS_P2;Temp;Humidity;BMP_temperature;BMP_pressure;BME280_temperature;BME280_humidity;BME280_pressure;Samples;Min_cycle;Max_cycle;Signal;HPM_P1;HPM_P2
2022/10/22 00:00:56;;;;;;;18.77;13.43;;;14.50;99.90;;;;;;5074093;28;20419;-69
2022/10/22 00:03:25;;;;;;;16.87;12.80;;;14.50;99.90;;;;;;5073843;28;20435;-69
2022/10/22 00:05:51;;;;;;;20.10;12.50;;;14.50;99.90;;;;;;5073588;28;20716;-69
2022/10/22 00:08:16;;;;;;;22.13;13.93;;;14.60;99.90;;;;;;5072989;28;20400;-70
2022/10/22 00:10:42;;;;;;;18.63;12.70;;;14.60;99.90;;;;;;5074091;28;20212;-70
2022/10/22 00:13:09;;;;;;;18.17;13.40;;;14.60;99.90;;;;;;5075293;28;20231;-67
2022/10/22 00:15:34;;;;;;;16.03;11.50;;;14.60;99.90;;;;;;5072716;28;20201;-70
2022/10/22 00:18:00;;;;;;;16.93;12.40;;;14.60;99.90;;;;;;5075025;28;20440;-70
2022/10/22 00:20:25;;;;;;;19.33;12.40;;;14.60;99.90;;;;;;5074011;28;20504;-70
2022/10/22 00:22:51;;;;;;;13.27;11.10;;;14.60;99.90;;;;;;5073656;28;20531;-69
2022/10/22 00:25:17;;;;;;;16.90;12.60;;;14.60;99.90;;;;;;5073888;28;20562;-69
2022/10/22 00:27:42;;;;;;;19.03;13.83;;;14.60;99.90;;;;;;5073694;28;20213;-69
2022/10/22 00:30:09;;;;;;;17.63;12.47;;;14.60;99.90;;;;;;5073766;28;20635;-67
2022/10/22 00:32:34;;;;;;;17.70;13.07;;;14.60;99.90;;;;;;5074179;28;20205;-71
2022/10/22 00:35:00;;;;;;;16.07;11.97;;;14.60;99.90;;;;;;5073676;28;20433;-70
2022/10/22 00:37:26;;;;;;;17.20;12.63;;;14.60;99.90;;;;;;5064166;28;20734;-69
2022/10/22 00:39:51;;;;;;;22.90;13.13;;;14.60;99.90;;;;;;5053265;28;20261;-69
2022/10/22 00:42:20;;;;;;;17.40;13.00;;;14.50;99.90;;;;;;5053728;28;20193;-68
2022/10/22 00:45:07;;;;;;;19.70;14.07;;;14.60;99.90;;;;;;5053505;28;20171;-68
2022/10/22 00:47:56;;;;;;;21.33;12.47;;;14.60;99.90;;;;;;5054612;28;20746;-66
2022/10/22 00:50:33;;;;;;;19.90;13.93;;;14.50;99.90;;;;;;5060290;28;20478;-67
2022/10/22 00:53:00;;;;;;;18.10;12.37;;;14.50;99.90;;;;;;5073813;28;20900;-67
2022/10/22 00:55:27;;;;;;;16.53;13.00;;;14.50;99.90;;;;;;5072053;28;20806;-68
2022/10/22 00:57:55;;;;;;;17.90;13.40;;;14.50;99.90;;;;;;5074155;28;20427;-67
2022/10/22 01:00:21;;;;;;;19.53;13.13;;;14.50;99.90;;;;;;5074187;28;20371;-67
2022/10/22 01:02:49;;;;;;;18.70;14.03;;;14.50;99.90;;;;;;5073978;28;20447;-68
2022/10/22 01:05:15;;;;;;;17.97;11.97;;;14.50;99.90;;;;;;5068025;28;20233;-67
2022/10/22 01:07:52;;;;;;;16.10;11.93;;;14.50;99.90;;;;;;5054313;28;20409;-69
2022/10/22 01:10:33;;;;;;;23.30;13.80;;;14.50;99.90;;;;;;5053985;28;20488;-71
2022/10/22 01:13:30;;;;;;;19.57;13.57;;;14.50;99.90;;;;;;5052377;28;20937;-67
2022/10/22 01:16:36;;;;;;;17.23;12.70;;;14.50;99.90;;;;;;5053264;28;20428;-68
2022/10/22 01:19:18;;;;;;;19.30;13.30;;;14.50;99.90;;;;;;5064823;28;20463;-68
2022/10/22 01:21:48;;;;;;;20.77;13.97;;;14.50;99.90;;;;;;5072481;28;20405;-67
2022/10/22 01:24:50;;;;;;;22.30;14.37;;;14.50;99.90;;;;;;5073156;28;20403;-67
2022/10/22 01:27:28;;;;;;;16.47;11.90;;;14.50;99.90;;;;;;5073549;28;20520;-70
2022/10/22 01:30:21;;;;;;;15.87;12.00;;;14.50;99.90;;;;;;5072276;28;20905;-67
2022/10/22 01:32:51;;;;;;;16.80;12.37;;;14.50;99.90;;;;;;5069773;28;20403;-67
2022/10/22 01:35:27;;;;;;;17.43;12.63;;;14.50;99.90;;;;;;5070819;28;20440;-67
2022/10/22 01:37:59;;;;;;;25.63;14.33;;;14.50;99.90;;;;;;5072594;28;20447;-68
2022/10/22 01:40:27;;;;;;;17.27;12.60;;;14.50;99.90;;;;;;5089220;28;20508;-68
2022/10/22 01:43:04;;;;;;;23.03;13.40;;;14.40;99.90;;;;;;5089406;28;20415;-71
2022/10/22 01:45:37;;;;;;;15.60;11.83;;;14.40;99.90;;;;;;5072227;28;20395;-69
2022/10/22 01:48:26;;;;;;;12.47;10.17;;;14.40;99.90;;;;;;5053803;28;20428;-71
2022/10/22 01:51:10;;;;;;;17.00;11.50;;;14.40;99.90;;;;;;5046183;28;20405;-68
2022/10/22 01:54:00;;;;;;;14.77;12.53;;;14.40;99.90;;;;;;5052749;28;20405;-77
2022/10/22 01:56:52;;;;;;;17.00;12.10;;;14.40;99.90;;;;;;5052032;28;20429;-71
2022/10/22 01:59:33;;;;;;;21.13;14.20;;;14.40;99.90;;;;;;5053138;28;20544;-69
2022/10/22 02:02:09;;;;;;;20.73;14.30;;;14.40;99.90;;;;;;5052743;28;20425;-71
2022/10/22 02:04:40;;;;;;;19.60;15.20;;;14.40;99.90;;;;;;5051185;28;20519;-70
2022/10/22 02:07:09;;;;;;;24.03;15.50;;;14.40;99.90;;;;;;5052039;28;20421;-70
2022/10/22 02:09:35;;;;;;;18.33;14.20;;;14.50;99.90;;;;;;5053165;28;20427;-70
2022/10/22 02:12:05;;;;;;;27.27;15.30;;;14.50;99.90;;;;;;5053294;28;20493;-69
2022/10/22 02:14:33;;;;;;;26.77;15.60;;;14.50;99.90;;;;;;5052402;28;20762;-67
2022/10/22 02:16:59;;;;;;;25.57;15.73;;;14.50;99.90;;;;;;5052569;28;20416;-70
2022/10/22 02:19:46;;;;;;;26.53;15.13;;;14.50;99.90;;;;;;5052405;28;20453;-70
2022/10/22 02:22:12;;;;;;;21.83;14.90;;;14.50;99.90;;;;;;5053226;28;20893;-67
2022/10/22 02:24:38;;;;;;;25.23;16.80;;;14.50;99.90;;;;;;5052307;28;20489;-67
2022/10/22 02:27:08;;;;;;;27.50;15.70;;;14.50;99.90;;;;;;5068616;28;20434;-68
2022/10/22 02:29:57;;;;;;;24.27;14.60;;;14.50;99.90;;;;;;5061129;28;20598;-69
2022/10/22 02:32:27;;;;;;;21.53;14.60;;;14.50;99.90;;;;;;5072070;28;20409;-67
2022/10/22 02:34:54;;;;;;;22.13;15.43;;;14.50;99.90;;;;;;5071192;28;20407;-68
2022/10/22 02:37:21;;;;;;;21.53;15.43;;;14.50;99.90;;;;;;5071803;28;20420;-67
2022/10/22 02:39:47;;;;;;;21.53;14.60;;;14.50;99.90;;;;;;5072373;28;20487;-68
2022/10/22 02:42:13;;;;;;;27.93;15.30;;;14.50;99.90;;;;;;5073127;28;20487;-69
2022/10/22 02:44:39;;;;;;;23.47;15.50;;;14.50;99.90;;;;;;5058797;28;20474;-68
2022/10/22 02:47:05;;;;;;;23.33;15.57;;;14.50;99.90;;;;;;5051527;28;20489;-68
2022/10/22 02:49:30;;;;;;;25.80;16.03;;;14.60;99.90;;;;;;5051866;28;20175;-69
2022/10/22 02:51:56;;;;;;;28.53;15.73;;;14.60;99.90;;;;;;5052580;28;20183;-70
2022/10/22 02:54:22;;;;;;;20.83;15.10;;;14.60;99.90;;;;;;5051866;28;20182;-70
2022/10/22 02:56:47;;;;;;;26.27;16.57;;;14.60;99.90;;;;;;5053792;28;20202;-69
2022/10/22 02:59:13;;;;;;;24.43;17.40;;;14.60;99.90;;;;;;5071632;28;20205;-69
2022/10/22 03:01:38;;;;;;;23.10;15.37;;;14.60;99.90;;;;;;5071429;28;20557;-70
2022/10/22 03:04:04;;;;;;;25.27;18.00;;;14.60;99.90;;;;;;5071162;28;20202;-69
2022/10/22 03:06:30;;;;;;;25.53;17.63;;;14.60;99.90;;;;;;5076298;28;20210;-67
2022/10/22 03:08:56;;;;;;;25.53;17.70;;;14.60;99.90;;;;;;5076414;28;20542;-67
2022/10/22 03:11:28;;;;;;;30.23;16.20;;;14.60;99.90;;;;;;5073627;28;20309;-68
2022/10/22 03:13:54;;;;;;;35.40;17.87;;;14.60;99.90;;;;;;5075331;28;20412;-70
2022/10/22 03:16:20;;;;;;;25.40;16.17;;;14.60;99.90;;;;;;5076079;28;20442;-68
2022/10/22 03:18:45;;;;;;;27.63;17.37;;;14.60;99.90;;;;;;5074995;28;20205;-69
2022/10/22 03:21:30;;;;;;;25.43;16.60;;;14.60;99.90;;;;;;5074852;28;20716;-70
2022/10/22 03:23:56;;;;;;;24.80;17.93;;;14.70;99.90;;;;;;5073820;28;20182;-69
2022/10/22 03:26:23;;;;;;;27.47;17.80;;;14.60;99.90;;;;;;5069790;28;20453;-69
2022/10/22 03:28:49;;;;;;;33.93;16.60;;;14.60;99.90;;;;;;5055743;28;20496;-72
2022/10/22 03:31:14;;;;;;;26.50;15.00;;;14.60;99.90;;;;;;5055975;28;20433;-69
2022/10/22 03:33:40;;;;;;;28.07;18.00;;;14.60;99.90;;;;;;5055103;28;20171;-70
2022/10/22 03:36:07;;;;;;;29.30;16.80;;;14.60;99.90;;;;;;5055726;28;20195;-70
2022/10/22 03:38:35;;;;;;;28.23;17.57;;;14.60;99.90;;;;;;5054590;28;20675;-69
2022/10/22 03:41:00;;;;;;;25.63;17.80;;;14.60;99.90;;;;;;5070024;28;20921;-70
2022/10/22 03:43:26;;;;;;;27.17;18.30;;;14.60;99.90;;;;;;5074515;28;20413;-70
2022/10/22 03:45:52;;;;;;;27.87;17.67;;;14.50;99.90;;;;;;5073669;28;20190;-71
2022/10/22 03:48:18;;;;;;;32.17;14.40;;;14.50;99.90;;;;;;5075157;28;20412;-70
2022/10/22 03:50:43;;;;;;;27.47;16.03;;;14.40;99.90;;;;;;5075810;28;20197;-69
2022/10/22 03:53:09;;;;;;;23.70;16.83;;;14.40;99.90;;;;;;5069092;28;20271;-70
2022/10/22 03:55:37;;;;;;;30.30;18.40;;;14.30;99.90;;;;;;5054564;28;20645;-69
2022/10/22 03:58:03;;;;;;;26.37;16.17;;;14.20;99.90;;;;;;5055326;28;20528;-69
2022/10/22 04:00:29;;;;;;;22.87;14.80;;;14.20;99.90;;;;;;5054438;28;20494;-70
2022/10/22 04:02:54;;;;;;;27.33;15.17;;;14.20;99.90;;;;;;5054292;28;20516;-70
2022/10/22 04:05:20;;;;;;;25.77;17.50;;;14.10;99.90;;;;;;5054458;28;20548;-69
2022/10/22 04:07:46;;;;;;;26.90;17.00;;;14.10;99.90;;;;;;5058748;28;20673;-69
2022/10/22 04:10:11;;;;;;;30.30;18.23;;;14.10;99.90;;;;;;5075159;28;20228;-70
2022/10/22 04:12:37;;;;;;;30.40;17.33;;;14.10;99.90;;;;;;5074099;28;20174;-69
2022/10/22 04:15:04;;;;;;;32.00;18.70;;;14.10;99.90;;;;;;5072979;28;20177;-70
2022/10/22 04:17:34;;;;;;;24.67;16.00;;;14.10;99.90;;;;;;5075146;28;20243;-70
2022/10/22 04:20:00;;;;;;;34.40;18.83;;;14.20;99.90;;;;;;5074896;28;20501;-70
2022/10/22 04:22:26;;;;;;;35.53;18.90;;;14.20;99.90;;;;;;5073728;28;20418;-70
2022/10/22 04:24:54;;;;;;;29.60;20.17;;;14.20;99.90;;;;;;5073117;28;20412;-69
2022/10/22 04:27:20;;;;;;;33.90;19.70;;;14.20;99.90;;;;;;5074647;28;20189;-70
2022/10/22 04:29:46;;;;;;;33.87;20.53;;;14.20;99.90;;;;;;5075034;28;20404;-69
2022/10/22 04:32:11;;;;;;;38.70;18.40;;;14.20;99.90;;;;;;5074905;28;20253;-69
2022/10/22 04:34:37;;;;;;;32.90;19.93;;;14.20;99.90;;;;;;5073786;28;20181;-69
2022/10/22 04:37:03;;;;;;;35.93;19.33;;;14.10;99.90;;;;;;5054559;28;20209;-68
2022/10/22 04:39:29;;;;;;;46.90;19.63;;;14.10;99.90;;;;;;5055078;28;20237;-69
2022/10/22 04:41:55;;;;;;;37.50;19.20;;;14.10;99.90;;;;;;5053645;28;20445;-69
2022/10/22 04:44:21;;;;;;;37.07;21.20;;;14.10;99.90;;;;;;5052904;28;20178;-71
2022/10/22 04:46:46;;;;;;;36.37;20.07;;;14.10;99.90;;;;;;5053130;28;20195;-69
2022/10/22 04:49:12;;;;;;;33.13;17.43;;;14.10;99.90;;;;;;5053462;28;20213;-68
2022/10/22 04:51:37;;;;;;;34.87;18.97;;;14.10;99.90;;;;;;5054346;28;20253;-69
2022/10/22 04:54:03;;;;;;;33.93;19.87;;;14.10;99.90;;;;;;5063303;28;20197;-68
2022/10/22 04:56:30;;;;;;;33.53;15.80;;;14.10;99.90;;;;;;5074160;28;20190;-69
2022/10/22 04:59:01;;;;;;;30.53;16.73;;;14.10;99.90;;;;;;5072600;28;20210;-70
2022/10/22 05:01:30;;;;;;;31.30;17.37;;;14.10;99.90;;;;;;5073312;28;20432;-68
2022/10/22 05:03:59;;;;;;;29.50;18.03;;;14.00;99.90;;;;;;5073107;28;20432;-69
2022/10/22 05:06:25;;;;;;;23.80;17.87;;;14.00;99.90;;;;;;5072924;28;20411;-71
2022/10/22 05:08:54;;;;;;;31.20;16.70;;;14.00;99.90;;;;;;5053968;28;20413;-68
2022/10/22 05:11:21;;;;;;;27.07;15.47;;;14.00;99.90;;;;;;5052767;28;20412;-68
2022/10/22 05:13:47;;;;;;;31.20;17.83;;;14.00;99.90;;;;;;5053132;28;20413;-69
2022/10/22 05:16:14;;;;;;;31.47;16.63;;;13.90;99.90;;;;;;5053750;28;20930;-71
2022/10/22 05:18:42;;;;;;;32.07;17.77;;;13.90;99.90;;;;;;5052330;28;21023;-71
2022/10/22 05:21:10;;;;;;;31.73;15.10;;;14.00;99.90;;;;;;5064530;28;20455;-68
2022/10/22 05:23:35;;;;;;;37.63;16.10;;;13.90;99.90;;;;;;5073364;28;20905;-77
2022/10/22 05:26:03;;;;;;;26.50;15.07;;;13.90;99.90;;;;;;5073371;28;20432;-70
2022/10/22 05:28:29;;;;;;;25.93;15.20;;;14.00;99.90;;;;;;5073461;28;20257;-69
2022/10/22 05:30:59;;;;;;;25.47;15.80;;;14.00;99.90;;;;;;5072595;28;20422;-69
2022/10/22 05:33:26;;;;;;;27.07;15.03;;;13.90;99.90;;;;;;5072266;28;20407;-69
2022/10/22 05:35:52;;;;;;;24.00;14.83;;;13.90;99.90;;;;;;5059160;28;20457;-78
2022/10/22 05:38:18;;;;;;;22.43;13.63;;;13.90;99.90;;;;;;5073354;28;20452;-69
2022/10/22 05:40:44;;;;;;;28.63;15.17;;;13.90;99.90;;;;;;5073708;28;20483;-71
2022/10/22 05:43:11;;;;;;;22.70;14.97;;;13.90;99.90;;;;;;5073579;28;20405;-70
2022/10/22 05:45:39;;;;;;;27.77;14.83;;;14.00;99.90;;;;;;5088097;28;20437;-70
2022/10/22 05:48:06;;;;;;;30.30;15.43;;;14.00;99.90;;;;;;5073530;28;20396;-70
2022/10/22 05:50:36;;;;;;;26.17;14.20;;;13.90;99.90;;;;;;5061445;28;20425;-75
2022/10/22 05:53:02;;;;;;;24.57;14.97;;;14.00;99.90;;;;;;5052874;28;20483;-75
2022/10/22 05:55:27;;;;;;;25.90;16.17;;;14.00;99.90;;;;;;5052527;28;20428;-73
2022/10/22 05:57:53;;;;;;;28.43;14.30;;;14.00;99.90;;;;;;5053345;28;20797;-73
2022/10/22 06:00:19;;;;;;;22.33;15.20;;;14.00;99.90;;;;;;5053179;28;20646;-70
2022/10/22 06:02:49;;;;;;;23.07;14.80;;;14.00;99.90;;;;;;5070394;28;20210;-70
2022/10/22 06:05:14;;;;;;;33.33;15.40;;;14.00;99.90;;;;;;5072331;28;20639;-69
2022/10/22 06:07:40;;;;;;;31.17;16.23;;;14.00;99.90;;;;;;5072897;28;20403;-72
2022/10/22 06:10:12;;;;;;;27.03;14.90;;;14.00;99.90;;;;;;5073152;28;20211;-70
2022/10/22 06:12:38;;;;;;;31.37;16.13;;;13.90;99.90;;;;;;5071629;28;20827;-69
2022/10/22 06:15:04;;;;;;;32.90;15.63;;;13.90;99.90;;;;;;5071973;28;20499;-69
2022/10/22 06:17:30;;;;;;;30.80;16.63;;;13.90;99.90;;;;;;5070831;28;20181;-68
2022/10/22 06:19:55;;;;;;;37.13;16.33;;;14.00;99.90;;;;;;5072822;28;20539;-68
2022/10/22 06:22:21;;;;;;;33.13;15.47;;;14.00;99.90;;;;;;5073275;28;20158;-69
2022/10/22 06:24:47;;;;;;;28.17;14.93;;;14.00;99.90;;;;;;5071981;28;20181;-69
2022/10/22 06:27:12;;;;;;;37.00;15.80;;;13.90;99.90;;;;;;5072876;28;20182;-68
2022/10/22 06:29:38;;;;;;;35.70;16.67;;;13.90;99.90;;;;;;5071613;28;20182;-70
2022/10/22 06:32:04;;;;;;;28.30;15.97;;;13.90;99.90;;;;;;5071759;28;20585;-67
2022/10/22 06:34:29;;;;;;;30.90;15.93;;;13.80;99.90;;;;;;5070824;28;20183;-69
2022/10/22 06:36:55;;;;;;;22.03;14.07;;;13.80;99.90;;;;;;5072050;28;20228;-68
2022/10/22 06:39:20;;;;;;;26.30;14.60;;;13.80;99.90;;;;;;5073594;28;20232;-69
2022/10/22 06:41:46;;;;;;;24.33;16.37;;;13.80;99.90;;;;;;5075738;28;20211;-69
2022/10/22 06:44:16;;;;;;;35.67;17.40;;;13.80;99.90;;;;;;5075918;28;20262;-68
2022/10/22 06:46:42;;;;;;;30.97;16.40;;;13.80;99.90;;;;;;5074502;28;20667;-68
2022/10/22 06:49:12;;;;;;;24.20;16.20;;;13.90;99.90;;;;;;5075914;28;20444;-68
2022/10/22 06:51:40;;;;;;;28.67;13.97;;;13.90;99.90;;;;;;5076486;28;20409;-70
2022/10/22 06:54:06;;;;;;;27.37;15.60;;;14.00;99.90;;;;;;5076004;28;20797;-69
2022/10/22 06:56:32;;;;;;;28.63;15.80;;;14.00;99.90;;;;;;5076281;28;20432;-70
2022/10/22 06:58:58;;;;;;;23.13;15.80;;;14.10;1.00;;;;;;5071171;28;20468;-68
2022/10/22 07:01:30;;;;;;;33.10;18.30;;;14.10;1.00;;;;;;5064220;28;20536;-71
2022/10/22 07:03:56;;;;;;;23.90;16.30;;;14.10;99.90;;;;;;5078097;28;21050;-68
2022/10/22 07:06:22;;;;;;;22.93;15.40;;;14.20;1.00;;;;;;5076127;28;20408;-69
2022/10/22 07:08:48;;;;;;;22.87;14.33;;;14.20;99.90;;;;;;5075740;28;20179;-69
2022/10/22 07:11:18;;;;;;;22.03;14.40;;;14.10;99.90;;;;;;5074346;28;20432;-70
2022/10/22 07:13:44;;;;;;;22.50;13.87;;;14.10;99.90;;;;;;5054277;28;20789;-71
2022/10/22 07:16:11;;;;;;;22.70;15.20;;;14.10;99.90;;;;;;5071772;28;20940;-69
2022/10/22 07:18:37;;;;;;;28.03;14.00;;;14.00;99.90;;;;;;5071408;28;20454;-69
2022/10/22 07:21:04;;;;;;;23.37;14.17;;;14.10;99.90;;;;;;5076218;28;20392;-69
2022/10/22 07:23:30;;;;;;;26.13;14.53;;;14.10;99.90;;;;;;5075452;28;20493;-69
2022/10/22 07:25:56;;;;;;;17.40;13.53;;;14.10;99.90;;;;;;5069719;28;20973;-69
2022/10/22 07:28:22;;;;;;;20.70;14.63;;;14.10;99.90;;;;;;5067035;28;20420;-69
2022/10/22 07:30:48;;;;;;;23.27;15.40;;;14.10;99.90;;;;;;5076246;28;20166;-70
2022/10/22 07:33:14;;;;;;;21.97;15.40;;;14.20;99.90;;;;;;5071413;28;20179;-69
2022/10/22 07:35:40;;;;;;;25.20;15.73;;;14.10;99.90;;;;;;5054916;28;20428;-70
2022/10/22 07:38:07;;;;;;;21.73;13.87;;;14.20;99.90;;;;;;5055884;28;20171;-69
2022/10/22 07:40:33;;;;;;;19.93;13.60;;;14.20;99.90;;;;;;5066655;28;20834;-68
2022/10/22 07:42:59;;;;;;;22.40;15.00;;;14.20;99.90;;;;;;5074420;28;20431;-70
2022/10/22 07:45:25;;;;;;;21.87;14.10;;;14.30;99.90;;;;;;5074437;28;20789;-69
2022/10/22 07:47:50;;;;;;;24.63;15.60;;;14.20;99.90;;;;;;5075717;28;20574;-70
2022/10/22 07:50:17;;;;;;;21.83;14.80;;;14.20;99.90;;;;;;5075265;28;20178;-68
2022/10/22 07:52:42;;;;;;;32.47;15.83;;;14.10;99.90;;;;;;5075625;28;20197;-69
2022/10/22 07:55:08;;;;;;;21.37;14.93;;;14.10;99.90;;;;;;5073361;28;20460;-69
2022/10/22 07:57:36;;;;;;;22.93;14.40;;;14.10;99.90;;;;;;5075628;28;20159;-70
2022/10/22 08:00:03;;;;;;;26.73;15.17;;;14.10;99.90;;;;;;5075332;28;20950;-69
2022/10/22 08:02:29;;;;;;;26.87;15.90;;;14.10;99.90;;;;;;5074338;28;20436;-68
2022/10/22 08:04:55;;;;;;;19.93;14.60;;;14.10;99.90;;;;;;5073977;28;20476;-69
2022/10/22 08:07:22;;;;;;;27.83;16.37;;;14.10;99.90;;;;;;5074125;28;20162;-68
2022/10/22 08:09:47;;;;;;;18.63;13.10;;;14.20;99.90;;;;;;5075270;28;20401;-69
2022/10/22 08:12:13;;;;;;;27.77;16.90;;;14.10;99.90;;;;;;5073914;28;20766;-68
2022/10/22 08:14:39;;;;;;;23.27;14.50;;;14.10;99.90;;;;;;5074310;28;20191;-69
2022/10/22 08:17:04;;;;;;;21.87;15.57;;;14.10;99.90;;;;;;5075018;28;20194;-69
2022/10/22 08:19:31;;;;;;;27.20;16.33;;;14.10;99.90;;;;;;5073668;28;20194;-70
2022/10/22 08:21:57;;;;;;;25.07;16.03;;;14.20;99.90;;;;;;5073745;28;20220;-69
2022/10/22 08:24:23;;;;;;;23.93;15.60;;;14.30;99.90;;;;;;5072734;28;20933;-68
2022/10/22 08:26:48;;;;;;;25.63;15.37;;;14.30;99.90;;;;;;5074828;28;20420;-68
2022/10/22 08:29:14;;;;;;;25.80;15.70;;;14.30;99.90;;;;;;5074961;28;20170;-69
2022/10/22 08:31:40;;;;;;;25.03;16.60;;;14.40;99.90;;;;;;5074848;28;20180;-69
2022/10/22 08:34:07;;;;;;;24.83;15.50;;;14.40;99.90;;;;;;5074004;28;20204;-69
2022/10/22 08:36:33;;;;;;;24.17;15.27;;;14.40;99.90;;;;;;5062961;28;20564;-68
2022/10/22 08:38:58;;;;;;;34.73;18.60;;;14.40;99.90;;;;;;5058504;28;20457;-69
2022/10/22 08:41:24;;;;;;;25.77;15.53;;;14.40;99.90;;;;;;5054384;28;20401;-70
2022/10/22 08:44:21;;;;;;;27.17;16.83;;;14.50;99.90;;;;;;5053885;28;20186;-69
2022/10/22 08:46:53;;;;;;;28.57;16.90;;;14.60;99.90;;;;;;5054507;28;20422;-71
2022/10/22 08:49:41;;;;;;;24.97;15.40;;;14.70;99.90;;;;;;5054487;28;20885;-69
2022/10/22 08:52:14;;;;;;;23.27;16.23;;;14.80;99.90;;;;;;5054507;28;20394;-69
2022/10/22 08:54:53;;;;;;;24.03;14.37;;;14.80;99.90;;;;;;5056300;28;20449;-68
2022/10/22 08:57:47;;;;;;;24.20;14.40;;;14.80;99.90;;;;;;5073858;28;20974;-69
2022/10/22 09:00:19;;;;;;;28.80;15.70;;;14.70;99.90;;;;;;5074108;28;20809;-69
2022/10/22 09:03:03;;;;;;;19.03;13.60;;;14.70;99.90;;;;;;5073293;28;20428;-69
2022/10/22 09:05:32;;;;;;;24.07;15.53;;;14.70;99.90;;;;;;5055124;28;20834;-69
2022/10/22 09:07:57;;;;;;;23.13;13.93;;;14.60;99.90;;;;;;5063357;28;20964;-69
2022/10/22 09:10:34;;;;;;;27.97;16.13;;;14.60;99.90;;;;;;5054080;28;20444;-72
2022/10/22 09:13:00;;;;;;;28.53;16.37;;;14.50;99.90;;;;;;5069813;28;20230;-69
2022/10/22 09:15:26;;;;;;;24.27;16.60;;;14.50;99.90;;;;;;5073077;28;20813;-70
2022/10/22 09:18:27;;;;;;;24.50;15.17;;;14.50;99.90;;;;;;5070059;28;20188;-70
2022/10/22 09:20:57;;;;;;;23.70;14.37;;;14.50;99.90;;;;;;5011564;28;20513;-68
2022/10/22 09:23:55;;;;;;;25.60;15.30;;;14.40;99.90;;;;;;5046744;28;20993;-69
2022/10/22 09:26:21;;;;;;;28.77;17.27;;;14.50;99.90;;;;;;5014294;28;20450;-68
2022/10/22 09:28:51;;;;;;;24.30;16.13;;;14.40;99.90;;;;;;5065784;28;20865;-70
2022/10/22 09:31:17;;;;;;;27.30;16.90;;;14.40;99.90;;;;;;5063245;28;20666;-69
2022/10/22 09:33:46;;;;;;;25.03;17.87;;;14.40;99.90;;;;;;5070418;28;20957;-69
2022/10/22 09:36:16;;;;;;;27.60;18.50;;;14.50;99.90;;;;;;5070196;28;20481;-69
2022/10/22 09:38:50;;;;;;;29.13;17.10;;;14.50;99.90;;;;;;5053587;28;20446;-70
2022/10/22 09:41:18;;;;;;;29.50;17.77;;;14.50;99.90;;;;;;5072475;28;20448;-69
2022/10/22 09:43:47;;;;;;;28.23;17.97;;;14.60;99.90;;;;;;5072554;28;20427;-68
2022/10/22 09:46:18;;;;;;;30.37;18.47;;;14.60;99.90;;;;;;5073633;28;20424;-69
2022/10/22 09:49:33;;;;;;;25.33;17.60;;;14.70;99.90;;;;;;5081480;28;20789;-69
2022/10/22 09:52:00;;;;;;;31.60;18.60;;;14.60;99.90;;;;;;5048825;28;20472;-67
2022/10/22 09:54:32;;;;;;;23.50;15.80;;;14.70;99.90;;;;;;5063800;28;20871;-68
2022/10/22 09:57:11;;;;;;;24.03;17.00;;;14.70;99.90;;;;;;5073232;28;20451;-68
2022/10/22 09:59:40;;;;;;;26.90;16.70;;;14.80;99.90;;;;;;5073168;28;20451;-68
2022/10/22 10:02:08;;;;;;;27.10;17.33;;;14.80;99.90;;;;;;5072374;28;20424;-68
2022/10/22 10:04:39;;;;;;;28.40;19.17;;;14.90;99.90;;;;;;5072020;28;20470;-68
2022/10/22 10:07:21;;;;;;;29.73;17.20;;;14.80;99.90;;;;;;5072733;28;20415;-68
2022/10/22 10:09:47;;;;;;;25.00;17.13;;;14.90;99.90;;;;;;5071830;28;20424;-68
2022/10/22 10:12:34;;;;;;;28.83;16.43;;;14.90;99.90;;;;;;5073298;28;20491;-68
2022/10/22 10:15:03;;;;;;;27.03;17.30;;;14.90;99.90;;;;;;5075874;28;20411;-69
2022/10/22 10:17:32;;;;;;;29.17;16.20;;;15.00;99.90;;;;;;5076322;28;20438;-69
2022/10/22 10:20:16;;;;;;;28.40;17.70;;;15.00;99.90;;;;;;5076984;28;20452;-70
2022/10/22 10:22:59;;;;;;;26.07;16.97;;;15.10;99.90;;;;;;5077296;28;20392;-69
2022/10/22 10:25:58;;;;;;;25.67;15.40;;;15.20;99.90;;;;;;5055766;28;20504;-69
2022/10/22 10:28:36;;;;;;;28.10;18.90;;;15.50;99.90;;;;;;5063011;28;20515;-69
2022/10/22 10:31:39;;;;;;;26.73;19.10;;;15.60;99.90;;;;;;5071193;28;20424;-70
2022/10/22 10:34:19;;;;;;;33.10;16.80;;;15.50;99.90;;;;;;5064967;28;20739;-69
2022/10/22 10:36:54;;;;;;;31.07;19.00;;;15.50;99.90;;;;;;5077196;28;20419;-69
2022/10/22 10:39:41;;;;;;;31.37;19.53;;;15.50;99.90;;;;;;5076509;28;20881;-70
2022/10/22 10:42:20;;;;;;;31.60;17.60;;;15.80;99.90;;;;;;5077122;28;20416;-69
2022/10/22 10:45:04;;;;;;;25.57;16.30;;;16.00;99.90;;;;;;5075175;28;20408;-69
2022/10/22 10:48:11;;;;;;;29.60;18.37;;;16.20;99.90;;;;;;5075672;28;20431;-68
2022/10/22 10:50:54;;;;;;;22.87;16.30;;;16.40;99.90;;;;;;5076105;28;20412;-69
2022/10/22 10:53:50;;;;;;;27.73;17.63;;;16.60;99.90;;;;;;5075127;28;20412;-70
2022/10/22 10:56:31;;;;;;;20.37;14.80;;;16.80;99.90;;;;;;5073945;28;20448;-70
2022/10/22 10:59:15;;;;;;;23.30;14.97;;;16.70;99.90;;;;;;5092325;28;20765;-69
2022/10/22 11:02:04;;;;;;;21.13;15.00;;;16.70;99.90;;;;;;5072366;28;20458;-71
2022/10/22 11:05:13;;;;;;;32.23;16.23;;;16.90;99.90;;;;;;5064338;28;20416;-70
2022/10/22 11:07:51;;;;;;;22.97;13.90;;;17.20;99.90;;;;;;5074679;28;20424;-70
2022/10/22 11:10:23;;;;;;;24.07;13.90;;;17.40;99.90;;;;;;5076240;28;20571;-69
2022/10/22 11:12:52;;;;;;;22.73;13.60;;;17.70;70.10;;;;;;5076305;28;20454;-69
2022/10/22 11:15:34;;;;;;;19.73;13.27;;;17.80;36.90;;;;;;5073801;28;20448;-70
2022/10/22 11:18:20;;;;;;;20.23;12.53;;;17.90;1.80;;;;;;5076428;28;20392;-70
2022/10/22 11:21:09;;;;;;;21.17;12.67;;;17.80;1.00;;;;;;5075470;28;20942;-69
2022/10/22 11:24:03;;;;;;;21.13;11.77;;;17.90;1.00;;;;;;5074532;28;20396;-70
2022/10/22 11:26:46;;;;;;;16.03;11.63;;;17.80;1.00;;;;;;5038682;28;20437;-70
2022/10/22 11:29:19;;;;;;;17.63;12.30;;;17.90;1.00;;;;;;5071192;28;20416;-70
2022/10/22 11:31:46;;;;;;;16.67;12.33;;;17.90;1.00;;;;;;5075593;28;20444;-69
2022/10/22 11:34:21;;;;;;;24.20;13.50;;;18.00;1.00;;;;;;5074904;28;20408;-69
2022/10/22 11:36:48;;;;;;;17.07;10.67;;;18.10;1.00;;;;;;5075591;28;20485;-70
2022/10/22 11:39:34;;;;;;;17.53;12.30;;;18.20;1.00;;;;;;5076041;28;20534;-72
2022/10/22 11:42:05;;;;;;;17.67;11.87;;;18.20;1.00;;;;;;5062339;28;20428;-69
2022/10/22 11:44:44;;;;;;;17.90;13.20;;;18.30;1.00;;;;;;5083379;28;20404;-69
2022/10/22 11:47:24;;;;;;;20.83;12.03;;;18.40;99.90;;;;;;5065457;28;20445;-70
2022/10/22 11:49:57;;;;;;;22.70;11.50;;;18.40;99.90;;;;;;5070416;28;20501;-70
2022/10/22 11:52:23;;;;;;;17.50;11.90;;;18.50;99.90;;;;;;5075738;28;20407;-69
2022/10/22 11:54:56;;;;;;;18.67;12.90;;;18.50;99.90;;;;;;5074472;28;20762;-70
2022/10/22 11:57:26;;;;;;;13.90;10.20;;;18.60;99.90;;;;;;5075642;28;20658;-69
2022/10/22 11:59:57;;;;;;;22.00;10.43;;;18.70;99.90;;;;;;5074658;28;20891;-71
2022/10/22 12:02:42;;;;;;;12.07;9.77;;;18.70;99.90;;;;;;5067546;28;20445;-70
2022/10/22 12:05:23;;;;;;;11.60;9.53;;;18.90;99.90;;;;;;5069892;28;20412;-69
2022/10/22 12:07:49;;;;;;;12.70;8.70;;;19.10;99.90;;;;;;5075400;28;20749;-69
2022/10/22 12:10:25;;;;;;;16.53;9.13;;;19.20;99.90;;;;;;5075055;28;20430;-69
2022/10/22 12:13:02;;;;;;;15.43;11.10;;;19.30;99.90;;;;;;5074007;28;20166;-70
2022/10/22 12:15:28;;;;;;;13.53;8.70;;;19.30;99.90;;;;;;5061370;28;20524;-70
2022/10/22 12:18:04;;;;;;;12.23;8.77;;;19.40;99.90;;;;;;5053826;28;20767;-69
2022/10/22 12:20:30;;;;;;;12.93;7.97;;;19.60;99.90;;;;;;5071247;28;20484;-69
2022/10/22 12:22:58;;;;;;;14.60;10.77;;;19.60;99.90;;;;;;5075057;28;20476;-71
2022/10/22 12:25:28;;;;;;;10.37;8.03;;;19.40;99.90;;;;;;5073397;28;20432;-70
2022/10/22 12:27:56;;;;;;;12.63;7.70;;;19.30;99.90;;;;;;5064539;28;20914;-69
2022/10/22 12:30:28;;;;;;;11.80;7.70;;;19.20;99.90;;;;;;5072657;28;20505;-69
2022/10/22 12:32:56;;;;;;;11.80;7.17;;;19.10;99.90;;;;;;5074589;28;20415;-70
2022/10/22 12:35:26;;;;;;;9.03;6.83;;;18.90;99.90;;;;;;5073378;28;20467;-70
2022/10/22 12:37:55;;;;;;;11.67;7.00;;;18.90;99.90;;;;;;5074643;28;20900;-70
2022/10/22 12:40:30;;;;;;;11.03;6.70;;;19.00;99.90;;;;;;5086525;28;20602;-69
2022/10/22 12:42:59;;;;;;;8.63;6.27;;;19.00;99.90;;;;;;5062423;28;20517;-69
2022/10/22 12:45:30;;;;;;;5.63;5.03;;;18.90;99.90;;;;;;5073413;28;20482;-69
2022/10/22 12:48:01;;;;;;;8.30;6.47;;;18.80;99.90;;;;;;5070065;28;20933;-71